createdAt,value
2019-03-23T00:00:05.555Z,14.73
2019-03-23T00:02:33.945Z,13.95
2019-03-23T00:05:02.337Z,14.15
2019-03-23T00:07:30.721Z,14.23
2019-03-23T00:09:59.095Z,13.98
2019-03-23T00:12:27.475Z,14.18
2019-03-23T00:14:55.863Z,13.90
2019-03-23T00:17:24.243Z,13.13
2019-03-23T00:19:52.640Z,14.60
2019-03-23T00:22:21.021Z,14.50
2019-03-23T00:24:49.395Z,13.55
2019-03-23T00:27:17.787Z,13.85
2019-03-23T00:29:46.168Z,13.72
2019-03-23T00:32:14.565Z,14.28
2019-03-23T00:34:42.943Z,15.43
2019-03-23T00:37:11.343Z,14.35
2019-03-23T00:39:39.728Z,14.68
2019-03-23T00:42:08.124Z,14.47
2019-03-23T00:44:36.499Z,15.48
2019-03-23T00:47:04.888Z,15.45
2019-03-23T00:49:33.272Z,18.57
2019-03-23T00:52:01.665Z,15.60
2019-03-23T00:54:30.046Z,16.67
2019-03-23T00:56:58.751Z,15.78
2019-03-23T00:59:27.135Z,16.85
2019-03-23T01:01:55.528Z,16.02
2019-03-23T01:04:24.202Z,16.10
2019-03-23T01:06:52.670Z,16.27
2019-03-23T01:09:21.051Z,15.15
2019-03-23T01:11:49.455Z,15.53
2019-03-23T01:14:17.861Z,15.13
2019-03-23T01:16:46.223Z,14.15
2019-03-23T01:19:14.600Z,14.95
2019-03-23T01:21:42.988Z,14.10
2019-03-23T01:24:11.371Z,13.60
2019-03-23T01:26:39.765Z,14.05
2019-03-23T01:29:08.144Z,14.83
2019-03-23T01:31:36.540Z,15.58
2019-03-23T01:34:04.920Z,14.45
2019-03-23T01:36:33.312Z,15.70
2019-03-23T01:39:01.702Z,14.85
2019-03-23T01:41:30.099Z,15.38
2019-03-23T01:43:58.488Z,16.35
2019-03-23T01:46:26.880Z,15.98
2019-03-23T01:48:55.257Z,15.72
2019-03-23T01:51:23.646Z,15.83
2019-03-23T01:53:52.027Z,15.58
2019-03-23T01:56:20.415Z,14.47
2019-03-23T01:58:48.800Z,16.12
2019-03-23T02:01:17.193Z,17.02
2019-03-23T02:03:45.578Z,17.07
2019-03-23T02:06:14.223Z,15.25
2019-03-23T02:08:42.616Z,15.10
2019-03-23T02:11:11.008Z,16.23
2019-03-23T02:13:39.389Z,16.48
2019-03-23T02:16:07.788Z,14.63
2019-03-23T02:18:36.164Z,14.83
2019-03-23T02:21:04.556Z,15.85
2019-03-23T02:23:33.204Z,15.93
2019-03-23T02:26:01.579Z,15.25
2019-03-23T02:28:30.255Z,17.20
2019-03-23T02:30:58.665Z,16.25
2019-03-23T02:33:27.163Z,17.35
2019-03-23T02:35:55.620Z,17.25
2019-03-23T02:38:23.995Z,16.45
2019-03-23T02:40:52.376Z,16.42
2019-03-23T02:43:20.770Z,17.00
2019-03-23T02:45:49.153Z,17.92
2019-03-23T02:48:17.537Z,17.02
2019-03-23T02:50:45.924Z,18.55
2019-03-23T02:53:14.326Z,16.42
2019-03-23T02:55:42.699Z,15.98
2019-03-23T02:58:11.088Z,16.25
2019-03-23T03:00:39.472Z,15.60
2019-03-23T03:03:07.872Z,17.35
2019-03-23T03:05:36.253Z,16.57
2019-03-23T03:08:04.649Z,15.60
2019-03-23T03:10:40.523Z,16.37
2019-03-23T03:13:08.969Z,16.45
2019-03-23T03:15:37.365Z,15.72
2019-03-23T03:18:07.193Z,16.23
2019-03-23T03:20:35.572Z,16.97
2019-03-23T03:23:04.036Z,17.00
2019-03-23T03:25:32.412Z,17.45
2019-03-23T03:28:00.811Z,17.32
2019-03-23T03:30:29.238Z,15.95
2019-03-23T03:32:57.680Z,16.97
2019-03-23T03:35:26.362Z,16.67
2019-03-23T03:37:56.869Z,16.07
2019-03-23T03:40:24.847Z,16.00
2019-03-23T03:42:53.525Z,16.27
2019-03-23T03:45:27.191Z,16.10
2019-03-23T03:47:55.642Z,16.67
2019-03-23T03:50:24.029Z,18.15
2019-03-23T03:52:52.432Z,17.98
2019-03-23T03:55:20.807Z,18.02
2019-03-23T03:57:49.214Z,19.27
2019-03-23T04:00:17.663Z,17.80
2019-03-23T04:02:46.056Z,16.30
2019-03-23T04:05:14.709Z,16.37
2019-03-23T04:07:43.115Z,16.97
2019-03-23T04:10:11.634Z,16.95
2019-03-23T04:12:40.048Z,17.02
2019-03-23T04:15:09.868Z,18.80
2019-03-23T04:17:38.273Z,15.68
2019-03-23T04:20:08.204Z,17.50
2019-03-23T04:22:36.609Z,15.18
2019-03-23T04:25:07.215Z,16.90
2019-03-23T04:30:04.347Z,16.73
2019-03-23T04:32:32.743Z,16.60
2019-03-23T04:35:01.124Z,16.57
2019-03-23T04:37:29.513Z,16.12
2019-03-23T04:39:57.892Z,17.55
2019-03-23T04:42:26.280Z,17.62
2019-03-23T04:44:54.664Z,15.95
2019-03-23T04:47:23.056Z,17.05
2019-03-23T04:49:51.438Z,16.20
2019-03-23T04:52:20.069Z,17.67
2019-03-23T04:54:48.451Z,15.43
2019-03-23T04:57:16.839Z,15.95
2019-03-23T04:59:45.227Z,14.78
2019-03-23T05:02:13.689Z,16.93
2019-03-23T05:04:42.072Z,18.48
2019-03-23T05:07:10.462Z,18.77
2019-03-23T05:09:38.849Z,19.10
2019-03-23T05:12:07.520Z,17.37
2019-03-23T05:14:35.901Z,18.15
2019-03-23T05:17:04.291Z,17.55
2019-03-23T05:19:32.973Z,17.32
2019-03-23T05:22:01.360Z,16.23
2019-03-23T05:24:30.039Z,18.75
2019-03-23T05:26:58.435Z,17.73
2019-03-23T05:29:26.807Z,19.73
2019-03-23T05:31:55.196Z,18.07
2019-03-23T05:34:23.580Z,19.75
2019-03-23T05:36:52.245Z,17.70
2019-03-23T05:39:20.638Z,16.75
2019-03-23T05:41:49.029Z,19.52
2019-03-23T05:44:17.399Z,16.80
2019-03-23T05:46:46.081Z,19.27
2019-03-23T05:49:14.468Z,19.05
2019-03-23T05:51:42.856Z,18.57
2019-03-23T05:54:11.248Z,18.75
2019-03-23T05:56:39.639Z,19.25
2019-03-23T05:59:08.029Z,16.25
2019-03-23T06:01:36.424Z,17.82
2019-03-23T06:04:04.870Z,16.93
2019-03-23T06:06:33.254Z,17.45
2019-03-23T06:09:03.135Z,16.17
2019-03-23T06:11:31.513Z,15.95
2019-03-23T06:13:59.908Z,16.23
2019-03-23T06:16:28.284Z,15.80
2019-03-23T06:18:56.683Z,16.37
2019-03-23T06:21:25.098Z,17.12
2019-03-23T06:23:53.529Z,16.70
2019-03-23T06:26:22.211Z,17.02
2019-03-23T06:28:50.613Z,16.77
2019-03-23T06:31:19.285Z,16.42
2019-03-23T06:33:47.668Z,17.98
2019-03-23T06:36:16.053Z,16.52
2019-03-23T06:38:44.450Z,16.07
2019-03-23T06:41:12.820Z,18.37
2019-03-23T06:43:41.222Z,17.25
2019-03-23T06:46:09.596Z,17.70
2019-03-23T06:48:37.984Z,18.00
2019-03-23T06:51:06.624Z,17.42
2019-03-23T06:53:35.311Z,18.00
2019-03-23T06:56:03.859Z,17.73
2019-03-23T06:58:32.255Z,17.55
2019-03-23T07:01:00.635Z,18.07
2019-03-23T07:03:29.344Z,18.10
2019-03-23T07:05:57.736Z,18.40
2019-03-23T07:08:31.828Z,18.50
2019-03-23T07:10:56.243Z,17.40
2019-03-23T07:13:24.649Z,17.30
2019-03-23T07:15:53.297Z,19.10
2019-03-23T07:18:21.685Z,17.85
2019-03-23T07:20:50.071Z,16.42
2019-03-23T07:23:18.469Z,18.55
2019-03-23T07:25:46.854Z,17.55
2019-03-23T07:28:15.255Z,18.23
2019-03-23T07:30:43.644Z,17.42
2019-03-23T07:33:12.049Z,17.40
2019-03-23T07:35:40.437Z,17.75
2019-03-23T07:38:09.000Z,18.50
2019-03-23T07:40:37.380Z,18.15
2019-03-23T07:43:05.778Z,17.70
2019-03-23T07:45:34.163Z,17.15
2019-03-23T07:48:02.551Z,18.70
2019-03-23T07:50:30.951Z,16.95
2019-03-23T07:52:59.339Z,17.17
2019-03-23T07:55:27.836Z,17.50
2019-03-23T07:57:56.708Z,16.52
2019-03-23T08:00:25.292Z,15.55
2019-03-23T08:02:53.687Z,16.95
2019-03-23T08:05:22.353Z,14.20
2019-03-23T08:07:51.024Z,16.30
2019-03-23T08:10:27.580Z,14.83
2019-03-23T08:12:55.976Z,16.00
2019-03-23T08:15:24.391Z,16.40
2019-03-23T08:17:52.768Z,16.25
2019-03-23T08:20:21.193Z,17.57
2019-03-23T08:22:49.577Z,15.13
2019-03-23T08:25:17.985Z,16.37
2019-03-23T08:27:46.676Z,15.35
2019-03-23T08:30:15.187Z,17.60
2019-03-23T08:32:43.562Z,16.95
2019-03-23T08:35:12.249Z,16.75
2019-03-23T08:37:40.682Z,16.60
2019-03-23T08:40:09.142Z,17.60
2019-03-23T08:42:37.589Z,17.37
2019-03-23T08:45:07.793Z,18.32
2019-03-23T08:47:36.473Z,17.02
2019-03-23T08:50:06.900Z,18.67
2019-03-23T08:52:35.312Z,15.60
2019-03-23T08:55:04.686Z,18.60
2019-03-23T08:57:33.072Z,18.67
2019-03-23T09:00:01.767Z,14.85
2019-03-23T09:02:30.452Z,17.57
2019-03-23T09:04:58.852Z,17.90
2019-03-23T09:07:27.508Z,17.55
2019-03-23T09:09:59.367Z,16.35
2019-03-23T09:12:26.024Z,17.52
2019-03-23T09:14:54.696Z,16.62
2019-03-23T09:17:23.098Z,15.05
2019-03-23T09:19:51.485Z,16.23
2019-03-23T09:22:19.889Z,16.23
2019-03-23T09:24:48.529Z,15.53
2019-03-23T09:27:16.941Z,14.47
2019-03-23T09:29:45.324Z,16.35
2019-03-23T09:32:13.731Z,17.98
2019-03-23T09:34:42.126Z,18.02
2019-03-23T09:37:10.525Z,19.42
2019-03-23T09:39:38.910Z,18.55
2019-03-23T09:42:07.310Z,17.35
2019-03-23T09:44:35.697Z,17.77
2019-03-23T09:47:04.091Z,18.30
2019-03-23T09:49:32.480Z,18.50
2019-03-23T09:52:00.886Z,19.23
2019-03-23T09:54:29.276Z,18.67
2019-03-23T09:56:59.529Z,20.02
2019-03-23T09:59:27.827Z,20.32
2019-03-23T10:01:56.283Z,20.52
2019-03-23T10:04:24.703Z,22.07
2019-03-23T10:06:53.128Z,21.93
2019-03-23T10:09:21.488Z,21.73
2019-03-23T10:11:50.211Z,19.48
2019-03-23T10:14:18.602Z,21.23
2019-03-23T10:16:46.996Z,22.85
2019-03-23T10:19:15.460Z,23.55
2019-03-23T10:21:43.918Z,23.55
2019-03-23T10:24:12.296Z,23.45
2019-03-23T10:26:40.701Z,23.83
2019-03-23T10:29:09.181Z,25.35
2019-03-23T10:31:37.569Z,27.17
2019-03-23T10:34:05.984Z,25.65
2019-03-23T10:36:34.376Z,24.70
2019-03-23T10:39:04.045Z,26.30
2019-03-23T10:41:32.442Z,26.57
2019-03-23T10:44:00.836Z,24.98
2019-03-23T10:46:29.224Z,23.55
2019-03-23T10:48:57.624Z,26.55
2019-03-23T10:51:26.007Z,27.05
2019-03-23T10:53:54.548Z,26.62
2019-03-23T10:56:22.930Z,26.68
2019-03-23T10:58:51.332Z,27.60
2019-03-23T11:01:19.724Z,27.82
2019-03-23T11:03:48.127Z,28.45
2019-03-23T11:06:16.511Z,29.25
2019-03-23T11:08:44.930Z,29.85
2019-03-23T11:11:13.308Z,31.33
2019-03-23T11:13:41.708Z,30.60
2019-03-23T11:16:10.607Z,31.02
2019-03-23T11:18:39.030Z,28.57
2019-03-23T11:21:07.415Z,32.00
2019-03-23T11:23:35.816Z,32.20
2019-03-23T11:26:04.208Z,30.50
2019-03-23T11:28:32.646Z,33.08
2019-03-23T11:31:01.023Z,33.90
2019-03-23T11:33:29.417Z,32.75
2019-03-23T11:35:58.299Z,33.88
2019-03-23T11:38:26.798Z,33.18
2019-03-23T11:40:55.401Z,33.48
2019-03-23T11:43:23.947Z,27.07
2019-03-23T11:45:52.342Z,34.30
2019-03-23T11:48:20.750Z,34.85
2019-03-23T11:50:49.140Z,35.38
2019-03-23T11:53:17.527Z,34.67
2019-03-23T11:55:46.171Z,35.08
2019-03-23T11:58:14.567Z,35.92
2019-03-23T12:00:42.969Z,38.13
2019-03-23T12:03:11.357Z,37.85
2019-03-23T12:05:40.126Z,35.15
2019-03-23T12:08:08.576Z,36.58
2019-03-23T12:10:36.977Z,37.98
2019-03-23T12:13:05.364Z,37.30
2019-03-23T12:15:33.763Z,38.23
2019-03-23T12:18:02.151Z,39.67
2019-03-23T12:20:30.560Z,39.95
2019-03-23T12:22:58.950Z,37.80
2019-03-23T12:25:27.354Z,39.03
2019-03-23T12:27:56.369Z,37.78
2019-03-23T12:30:24.741Z,40.28
2019-03-23T12:32:53.142Z,37.85
2019-03-23T12:35:21.542Z,36.77
2019-03-23T12:37:49.928Z,36.30
2019-03-23T12:40:18.693Z,38.95
2019-03-23T12:42:47.096Z,35.35
2019-03-23T12:45:15.828Z,38.53
2019-03-23T12:47:44.227Z,39.33
2019-03-23T12:50:12.995Z,35.52
2019-03-23T12:52:41.416Z,43.75
2019-03-23T12:55:10.281Z,35.63
2019-03-23T12:57:38.673Z,37.05
2019-03-23T13:00:12.708Z,33.80
2019-03-23T13:02:41.347Z,31.05
2019-03-23T13:05:09.877Z,31.93
2019-03-23T13:07:38.272Z,36.05
2019-03-23T13:10:10.074Z,29.82
2019-03-23T13:12:38.469Z,32.73
2019-03-23T13:15:09.359Z,37.67
2019-03-23T13:17:38.085Z,34.85
2019-03-23T13:20:08.759Z,32.10
2019-03-23T13:22:37.281Z,28.95
2019-03-23T13:25:08.213Z,31.62
2019-03-23T13:27:36.779Z,34.38
2019-03-23T13:30:08.257Z,35.48
2019-03-23T13:32:36.656Z,32.42
2019-03-23T13:35:05.414Z,35.48
2019-03-23T13:37:33.819Z,36.95
2019-03-23T13:40:02.204Z,35.28
2019-03-23T13:42:30.602Z,37.30
2019-03-23T13:44:59.011Z,33.78
2019-03-23T13:47:27.392Z,36.00
2019-03-23T13:49:55.784Z,36.00
2019-03-23T13:52:24.203Z,38.48
2019-03-23T13:54:52.899Z,36.15
2019-03-23T13:57:21.302Z,35.80
2019-03-23T13:59:49.695Z,34.67
2019-03-23T14:02:18.107Z,34.53
2019-03-23T14:04:46.500Z,38.65
2019-03-23T14:07:15.105Z,38.25
2019-03-23T14:09:43.492Z,38.67
2019-03-23T14:12:11.876Z,37.83
2019-03-23T14:14:40.277Z,38.65
2019-03-23T14:17:08.657Z,37.17
2019-03-23T14:19:37.321Z,36.10
2019-03-23T14:22:05.712Z,31.30
2019-03-23T14:24:34.133Z,35.85
2019-03-23T14:27:02.771Z,35.58
2019-03-23T14:29:31.165Z,33.90
2019-03-23T14:31:59.556Z,39.63
2019-03-23T14:34:27.955Z,35.90
2019-03-23T14:36:56.443Z,30.25
2019-03-23T14:39:24.846Z,31.85
2019-03-23T14:41:53.232Z,32.95
2019-03-23T14:44:21.631Z,35.25
2019-03-23T14:46:50.022Z,33.98
2019-03-23T14:49:18.424Z,37.00
2019-03-23T14:51:46.813Z,34.65
2019-03-23T14:54:15.210Z,35.68
2019-03-23T14:56:43.838Z,33.98
2019-03-23T14:59:12.250Z,30.12
2019-03-23T15:01:40.642Z,32.73
2019-03-23T15:04:09.287Z,35.08
2019-03-23T15:06:37.676Z,34.23
2019-03-23T15:09:06.616Z,34.55
2019-03-23T15:11:35.248Z,36.63
2019-03-23T15:14:03.652Z,33.45
2019-03-23T15:16:32.079Z,33.55
2019-03-23T15:19:00.516Z,32.53
2019-03-23T15:21:28.903Z,33.08
2019-03-23T15:23:57.291Z,32.23
2019-03-23T15:26:25.942Z,34.20
2019-03-23T15:28:54.343Z,32.73
2019-03-23T15:31:22.752Z,30.85
2019-03-23T15:33:51.139Z,30.25
2019-03-23T15:36:19.533Z,33.48
2019-03-23T15:38:47.924Z,33.10
2019-03-23T15:41:16.330Z,32.70
2019-03-23T15:43:44.711Z,32.00
2019-03-23T15:46:13.116Z,28.42
2019-03-23T15:48:41.504Z,32.98
2019-03-23T15:51:09.903Z,32.50
2019-03-23T15:53:38.294Z,32.35
2019-03-23T15:56:06.704Z,34.40
2019-03-23T15:58:35.114Z,26.70
2019-03-23T16:01:03.487Z,34.27
2019-03-23T16:03:31.875Z,29.60
2019-03-23T16:06:00.268Z,33.45
2019-03-23T16:08:28.649Z,34.65
2019-03-23T16:10:57.041Z,32.83
2019-03-23T16:13:25.454Z,34.30
2019-03-23T16:15:53.853Z,34.05
2019-03-23T16:18:22.326Z,34.00
2019-03-23T16:20:50.715Z,33.67
2019-03-23T16:23:19.143Z,31.07
2019-03-23T16:25:47.528Z,34.25
2019-03-23T16:28:15.932Z,36.03
2019-03-23T16:30:44.347Z,33.48
2019-03-23T16:33:12.725Z,33.13
2019-03-23T16:35:41.106Z,33.90
2019-03-23T16:38:09.510Z,33.42
2019-03-23T16:40:37.887Z,35.52
2019-03-23T16:43:06.430Z,35.78
2019-03-23T16:45:34.878Z,32.85
2019-03-23T16:48:03.547Z,32.63
2019-03-23T16:50:31.930Z,38.00
2019-03-23T16:53:00.328Z,38.65
2019-03-23T16:55:28.720Z,40.98
2019-03-23T16:57:57.192Z,41.15
2019-03-23T17:00:34.845Z,40.30
2019-03-23T17:03:03.781Z,39.30
2019-03-23T17:05:32.243Z,39.48
2019-03-23T17:08:00.643Z,38.73
2019-03-23T17:10:29.099Z,41.23
2019-03-23T17:12:57.731Z,38.67
2019-03-23T17:15:26.137Z,43.38
2019-03-23T17:17:54.752Z,42.27
2019-03-23T17:20:23.208Z,39.80
2019-03-23T17:22:51.609Z,41.13
2019-03-23T17:25:20.010Z,39.10
2019-03-23T17:27:48.398Z,38.08
2019-03-23T17:30:17.020Z,40.43
2019-03-23T17:32:45.418Z,44.08
2019-03-23T17:35:13.804Z,44.33
2019-03-23T17:37:42.207Z,42.90
2019-03-23T17:40:10.728Z,42.30
2019-03-23T17:42:39.120Z,44.23
2019-03-23T17:45:07.852Z,44.35
2019-03-23T17:47:36.257Z,47.60
2019-03-23T17:50:06.786Z,42.73
2019-03-23T17:55:02.995Z,47.08
2019-03-23T17:57:31.376Z,44.13
2019-03-23T17:59:59.779Z,48.30
2019-03-23T18:02:28.163Z,44.42
2019-03-23T18:04:56.552Z,45.40
2019-03-23T18:07:25.181Z,46.77
2019-03-23T18:09:53.571Z,44.83
2019-03-23T18:12:21.948Z,49.30
2019-03-23T18:14:50.349Z,49.55
2019-03-23T18:17:18.736Z,50.73
2019-03-23T18:19:47.137Z,45.30
2019-03-23T18:22:15.523Z,45.85
2019-03-23T18:24:43.925Z,49.45
2019-03-23T18:27:12.315Z,49.38
2019-03-23T18:29:40.721Z,51.68
2019-03-23T18:32:09.113Z,49.75
2019-03-23T18:34:37.514Z,52.08
2019-03-23T18:37:05.933Z,49.98
2019-03-23T18:39:34.349Z,50.40
2019-03-23T18:42:02.723Z,44.35
2019-03-23T18:44:31.699Z,47.83
2019-03-23T18:47:00.411Z,55.45
2019-03-23T18:49:28.809Z,48.23
2019-03-23T18:51:57.210Z,52.20
2019-03-23T18:54:25.616Z,51.73
2019-03-23T18:56:54.002Z,48.78
2019-03-23T18:59:22.392Z,55.12
2019-03-23T19:01:50.796Z,53.45
2019-03-23T19:04:19.582Z,53.80
2019-03-23T19:06:47.979Z,55.83
2019-03-23T19:09:16.385Z,55.65
2019-03-23T19:11:44.787Z,53.42
2019-03-23T19:14:13.180Z,50.05
2019-03-23T19:16:41.586Z,55.17
2019-03-23T19:19:10.272Z,56.98
2019-03-23T19:21:38.686Z,52.27
2019-03-23T19:24:07.341Z,56.80
2019-03-23T19:26:35.745Z,54.60
2019-03-23T19:29:04.136Z,54.25
2019-03-23T19:31:32.532Z,58.02
2019-03-23T19:34:01.174Z,55.25
2019-03-23T19:36:29.567Z,52.15
2019-03-23T19:38:57.964Z,56.83
2019-03-23T19:41:26.377Z,56.13
2019-03-23T19:43:54.759Z,55.98
2019-03-23T19:46:23.486Z,59.27
2019-03-23T19:48:52.168Z,59.65
2019-03-23T19:51:20.793Z,60.67
2019-03-23T19:53:49.180Z,58.92
2019-03-23T19:56:17.920Z,59.60
2019-03-23T19:58:46.312Z,55.10
2019-03-23T20:01:14.707Z,60.78
2019-03-23T20:03:43.115Z,61.48
2019-03-23T20:06:11.515Z,59.77
2019-03-23T20:08:39.924Z,60.00
2019-03-23T20:11:08.308Z,60.67
2019-03-23T20:13:36.709Z,56.30
2019-03-23T20:16:05.110Z,60.88
2019-03-23T20:18:33.502Z,55.23
2019-03-23T20:21:01.893Z,60.78
2019-03-23T20:23:30.299Z,60.67
2019-03-23T20:25:58.689Z,64.40
2019-03-23T20:28:27.097Z,58.68
2019-03-23T20:30:55.472Z,64.30
2019-03-23T20:33:23.871Z,61.45
2019-03-23T20:35:52.261Z,62.50
2019-03-23T20:38:20.664Z,56.60
2019-03-23T20:40:49.052Z,60.35
2019-03-23T20:43:17.459Z,58.05
2019-03-23T20:45:45.852Z,66.05
2019-03-23T20:48:14.593Z,60.17
2019-03-23T20:50:44.120Z,60.63
2019-03-23T20:53:14.820Z,63.63
2019-03-23T20:55:43.224Z,61.98
2019-03-23T20:58:11.627Z,62.43
2019-03-23T21:00:40.090Z,55.83
2019-03-23T21:03:08.489Z,60.35
2019-03-23T21:05:36.960Z,61.08
2019-03-23T21:08:05.923Z,61.30
2019-03-23T21:10:34.662Z,60.38
2019-03-23T21:13:03.048Z,56.68
2019-03-23T21:15:31.446Z,59.18
2019-03-23T21:17:59.841Z,55.78
2019-03-23T21:20:28.240Z,56.35
2019-03-23T21:22:56.623Z,55.40
2019-03-23T21:25:25.028Z,61.70
2019-03-23T21:27:53.422Z,58.30
2019-03-23T21:30:21.956Z,56.10
2019-03-23T21:32:50.600Z,52.43
2019-03-23T21:35:19.013Z,55.73
2019-03-23T21:37:47.399Z,56.23
2019-03-23T21:40:15.895Z,56.50
2019-03-23T21:42:44.271Z,58.15
2019-03-23T21:45:13.221Z,57.00
2019-03-23T21:47:41.603Z,56.28
2019-03-23T21:50:10.083Z,58.28
2019-03-23T21:52:38.780Z,57.58
2019-03-23T21:55:07.403Z,56.42
2019-03-23T21:57:35.932Z,51.48
2019-03-23T22:00:06.076Z,53.85
2019-03-23T22:02:34.471Z,55.83
2019-03-23T22:05:02.935Z,52.98
2019-03-23T22:07:31.327Z,55.40
2019-03-23T22:09:59.980Z,53.65
2019-03-23T22:12:28.367Z,56.10
2019-03-23T22:14:58.040Z,51.15
2019-03-23T22:17:26.432Z,55.20
2019-03-23T22:19:54.828Z,53.10
2019-03-23T22:22:23.225Z,52.00
2019-03-23T22:24:51.618Z,47.25
2019-03-23T22:27:19.996Z,49.55
2019-03-23T22:29:48.416Z,51.95
2019-03-23T22:32:17.148Z,47.35
2019-03-23T22:34:45.564Z,48.20
2019-03-23T22:37:13.964Z,50.15
2019-03-23T22:39:42.353Z,49.98
2019-03-23T22:42:11.077Z,47.93
2019-03-23T22:44:39.537Z,49.20
2019-03-23T22:47:07.938Z,40.88
2019-03-23T22:49:36.332Z,46.08
2019-03-23T22:52:04.719Z,44.15
2019-03-23T22:54:33.120Z,46.85
2019-03-23T22:57:01.865Z,48.80
2019-03-23T22:59:30.275Z,47.62
2019-03-23T23:01:58.746Z,47.53
2019-03-23T23:04:27.146Z,45.60
2019-03-23T23:06:55.536Z,44.15
2019-03-23T23:09:23.915Z,40.38
2019-03-23T23:11:52.565Z,46.25
2019-03-23T23:14:20.945Z,41.92
2019-03-23T23:16:49.356Z,42.13
2019-03-23T23:19:17.733Z,44.67
2019-03-23T23:21:46.383Z,39.95
2019-03-23T23:24:14.769Z,44.42
2019-03-23T23:26:43.171Z,44.70
2019-03-23T23:29:11.559Z,42.13
2019-03-23T23:31:39.952Z,43.45
2019-03-23T23:34:08.336Z,38.60
2019-03-23T23:36:36.723Z,43.25
2019-03-23T23:39:07.043Z,40.23
2019-03-23T23:41:35.432Z,34.53
2019-03-23T23:44:04.151Z,42.05
2019-03-23T23:46:32.541Z,44.35
2019-03-23T23:49:00.944Z,37.67
2019-03-23T23:51:29.328Z,41.08
2019-03-23T23:53:57.715Z,37.05
2019-03-23T23:56:26.113Z,41.48
2019-03-23T23:58:54.499Z,35.85
